Peterborough, Canada
Current Conditions -  °F | °C
As of 9:00 AM on Friday 19 Dec 2014 (Local Time) from CYPQ Reporting Station
Overcast Overcast  
Wind Chill:   Ceiling: 6000
Heat Index: 19°   Visibility: 9mi
Dew Point: 14°   Wind: 8mph
Humidity: 80%   Direction: 320°NW
Pressure: 30.16"   Gusts: NA
Location:  44.3°N, 78.32°W
Report Text: CYPQ 191400Z AUTO 32007KT 9SM SCT050 BKN060 OVC096 M07/M10 A3016 RMK SLP225
Loading
Personal Weather Stations






























Interactive Weather Map New forecast layout! Learn more

10-Day Weather Forecast

Advertisements
Track Severe Weather on mobile